Flight Track Log - Related Links

Times and Time Zones

All times are in EDT time to prevent confusion due to time zone crossing. See the UCA4838 flight status page for this flight to view local times or setup timezone preferences in your user account.

Time Position Orientation Groundspeed Altitude Reporting Facility
EDT Latitude Longitude Course Direction KTS MPH feet Rate Location/Type
Sun 06:19:13 AM 43.1042 -77.6897 205° Southwest 124 143 1,100  Level Cleveland Center
Sun 06:19:55 AM 43.0786 -77.7061 205° Southwest 150 173 2,000 1,165 Climbing Cleveland Center
Sun 06:20:56 AM 43.0522 -77.6528 124° Southeast 187 215 3,100 868 Climbing Cleveland Center
Sun 06:21:11 AM 43.0497 -77.6458 116° Southeast 179 206 3,100 1,184 Level Cleveland Center
Sun 06:22:12 AM 43.0275 -77.5775 114° Southeast 192 221 4,600 1,438 Climbing Cleveland Center
Sun 06:23:12 AM 43.0031 -77.5081 116° Southeast 197 227 6,000 1,339 Climbing Cleveland Center
Sun 06:24:13 AM 42.9789 -77.4378 115° Southeast 200 230 7,300 1,240 Climbing Cleveland Center
Sun 06:25:13 AM 42.9525 -77.3636 116° Southeast 212 244 8,500 1,190 Climbing Cleveland Center
Sun 06:26:14 AM 42.9258 -77.2869 115° Southeast 219 252 9,700 1,180 Climbing Cleveland Center
Sun 06:27:15 AM 42.8986 -77.2083 115° Southeast 225 259 10,900 1,140 Climbing Cleveland Center
Sun 06:28:15 AM 42.8706 -77.1311 116° Southeast 226 260 12,000 1,041 Climbing Cleveland Center
Sun 06:29:16 AM 42.8439 -77.0528 115° Southeast 226 260 13,000 496 Climbing Cleveland Center
Sun 06:30:16 AM 42.8114 -76.9647 117° Southeast 253 291 13,000  Level Cleveland Center
Sun 06:31:17 AM 42.7697 -76.8733 122° Southeast 277 319 13,000  Level Cleveland Center
Sun 06:32:17 AM 42.7272 -76.7767 121° Southeast 290 334 13,000  Level Cleveland Center
Sun 06:33:18 AM 42.6831 -76.6758 121° Southeast 290 334 13,000  Level Cleveland Center
Sun 06:34:19 AM 42.6347 -76.5681 121° Southeast 293 337 13,000  Level Cleveland Center
Sun 06:35:19 AM 42.5917 -76.4722 121° Southeast 293 337 13,000  Level Cleveland Center
Sun 06:36:20 AM 42.5497 -76.3761 121° Southeast 294 338 13,000  Level Cleveland Center
Sun 06:37:29 AM 42.5039 -76.2789 123° Southeast 301 346 13,000  Level Boston Center
Sun 06:38:30 AM 42.4600 -76.1800 121° Southeast 300 345 13,000  Level Boston Center
Sun 06:39:31 AM 42.4164 -76.0833 121° Southeast 300 345 13,000  Level Boston Center
Sun 06:40:34 AM 42.3731 -75.9883 122° Southeast 300 345 13,000  Level Boston Center
Sun 06:41:32 AM 42.3281 -75.8917 122° Southeast 301 346 13,000  Level Boston Center
Sun 06:42:24 AM 42.2847 -75.7961 121° Southeast 301 346 13,000  Level Cleveland Center
Sun 06:43:36 AM 42.2361 -75.6886 121° Southeast 301 346 13,000  Level Boston Center
Sun 06:44:34 AM 42.1908 -75.5931 123° Southeast 302 348 13,000  Level Boston Center
Sun 06:45:35 AM 42.1467 -75.4969 122° Southeast 302 348 13,000  Level Boston Center
Sun 06:46:38 AM 42.1017 -75.3994 122° Southeast 303 349 13,000  Level Boston Center
Sun 06:47:39 AM 42.0581 -75.3042 122° Southeast 302 348 13,000 -50 Level Boston Center
Sun 06:48:37 AM 42.0200 -75.2019 117° Southeast 303 349 12,900 -50 Descending Boston Center
Sun 06:49:38 AM 41.9769 -75.0908 118° Southeast 305 351 12,900  Level Boston Center
Sun 06:50:41 AM 41.9358 -74.9828 117° Southeast 304 350 12,900 -246 Level Boston Center
Sun 06:51:40 AM 41.8817 -74.8944 129° Southeast 318 366 12,400 -958 Descending Boston Center
Sun 06:52:40 AM 41.8172 -74.8094 135° Southeast 325 374 11,000 -1,388 Descending Boston Center
Sun 06:53:41 AM 41.7561 -74.7253 134° Southeast 316 364 9,600 -1,339 Descending Boston Center
Sun 06:54:41 AM 41.6969 -74.6456 135° Southeast 305 351 8,300 -1,220 Descending Boston Center
Sun 06:55:44 AM 41.6381 -74.5681 135° Southeast 300 345 7,100 -1,091 Descending Boston Center
Sun 06:56:42 AM 41.5536 -74.5669 179° South 288 331 6,100 -492 Descending Boston Center
Sun 06:57:46 AM 41.4761 -74.5797 187° South 285 328 6,100  Level Boston Center
Sun 06:58:47 AM 41.4000 -74.5933 188° South 280 322 6,100 -50 Level Boston Center
Sun 06:59:46 AM 41.3264 -74.6242 197° South 280 322 6,000 -50 Descending Boston Center
Sun 07:00:48 AM 41.2519 -74.6522 196° South 279 321 6,000  Level Boston Center
Sun 07:01:47 AM 41.1717 -74.6575 183° South 280 322 6,000 -50 Level Boston Center
Sun 07:02:47 AM 41.0967 -74.6411 171° South 274 315 5,900 -50 Descending Boston Center
Sun 07:03:48 AM 41.0203 -74.6228 170° South 276 318 5,900  Level Boston Center
Sun 07:04:49 AM 40.9586 -74.6044 167° South 276 318 5,900  Level Boston Center
Sun 07:05:49 AM 40.8836 -74.5828 168° South 276 318 5,900 -429 Level Boston Center
Sun 07:06:55 AM 40.7833 -74.5500 166° South 291 335 5,000 -571 Descending New York TRACON
Sun 07:07:55 AM 40.7167 -74.5167 159° South 280 322 4,700 -684 Descending New York TRACON
Sun 07:08:49 AM 40.6667 -74.4500 135° Southeast 275 316 3,700 -947 Descending New York TRACON
Sun 07:09:49 AM 40.6000 -74.3833 143° Southeast 238 274 2,900 -600 Descending New York TRACON
Sun 07:10:49 AM 40.5667 -74.3333 131° Southeast 210 242 2,500 -400 Descending New York TRACON
Sun 07:11:49 AM 40.5333 -74.2833 131° Southeast 188 216 2,100 -200 Descending New York TRACON
Sun 07:12:49 AM 40.5667 -74.2500 37° Northeast 147 169 2,100 -158 Level New York TRACON
Sun 07:13:43 AM 40.6000 -74.2167 37° Northeast 146 168 1,800 -526 Descending New York TRACON
Sun 07:14:43 AM 40.6333 -74.2000 21° North 135 155 1,100 -700 Descending New York TRACON
Sun 07:15:43 AM 40.6667 -74.1833 21° North 118 136 400 -700 Descending New York TRACON

Login

Don't have an account? Register now (free) for customized features, flight alerts, and more!